Time;durP1;ratioP1;P1;durP2;ratioP2;P2;SDS_P1;SDS_P2;PMS_P1;PMS_P2;Temp;Humidity;BMP_temperature;BMP_pressure;BME280_temperature;BME280_humidity;BME280_pressure;Samples;Min_cycle;Max_cycle;Signal;HPM_P1;HPM_P2
2023/05/06 00:02:07;;;;;;;4.40;2.60;;;;;;;15.87;60.61;101551.44;5049102;28;20048;-61
2023/05/06 00:04:34;;;;;;;5.18;3.47;;;;;;;15.85;60.65;101545.41;5059576;28;20067;-60
2023/05/06 00:07:02;;;;;;;5.32;3.53;;;;;;;15.85;60.59;101544.59;5055909;28;20057;-60
2023/05/06 00:09:31;;;;;;;6.13;3.58;;;;;;;15.83;60.51;101544.00;5061055;28;20103;-61
2023/05/06 00:11:59;;;;;;;5.38;3.20;;;;;;;15.83;60.73;101544.00;5064974;28;20053;-60
2023/05/06 00:14:27;;;;;;;4.63;3.08;;;;;;;15.80;60.58;101544.50;5060648;28;20061;-60
2023/05/06 00:16:54;;;;;;;4.57;3.30;;;;;;;15.80;60.69;101552.63;5060483;28;20047;-60
2023/05/06 00:19:22;;;;;;;4.38;3.40;;;;;;;15.78;60.51;101544.72;5051974;28;20069;-60
2023/05/06 00:21:50;;;;;;;5.05;3.42;;;;;;;15.77;60.64;101548.50;5066619;28;20048;-60
2023/05/06 00:24:18;;;;;;;7.25;3.42;;;;;;;15.75;60.61;101542.50;5065906;28;20057;-60
2023/05/06 00:26:47;;;;;;;5.38;3.65;;;;;;;15.74;60.62;101540.03;5058565;28;20043;-59
2023/05/06 00:29:15;;;;;;;4.75;3.78;;;;;;;15.67;60.61;101536.63;5052356;28;20148;-60
2023/05/06 00:31:44;;;;;;;4.60;3.47;;;;;;;15.73;60.51;101546.50;5055945;28;20041;-60
2023/05/06 00:34:11;;;;;;;5.18;3.33;;;;;;;15.71;60.55;101533.19;5061754;28;20112;-60
2023/05/06 00:36:41;;;;;;;5.15;3.60;;;;;;;15.70;60.63;101544.28;5060223;28;20052;-61
2023/05/06 00:39:09;;;;;;;6.50;3.60;;;;;;;15.68;60.67;101540.97;5060883;28;20056;-62
2023/05/06 00:41:37;;;;;;;5.85;3.80;;;;;;;15.65;60.72;101542.28;5053619;28;20324;-60
2023/05/06 00:44:06;;;;;;;5.25;3.58;;;;;;;15.64;60.75;101537.91;5060051;28;20049;-60
2023/05/06 00:46:34;;;;;;;6.18;3.35;;;;;;;15.63;60.57;101541.69;5047874;28;20130;-60
2023/05/06 00:49:02;;;;;;;4.03;2.97;;;;;;;15.61;60.44;101531.09;5060848;28;20052;-60
2023/05/06 00:51:31;;;;;;;5.68;3.35;;;;;;;15.61;60.58;101538.41;5057002;28;20116;-62
2023/05/06 00:53:58;;;;;;;5.35;3.38;;;;;;;15.59;60.31;101532.44;5049096;28;20056;-60
2023/05/06 00:56:27;;;;;;;4.63;3.30;;;;;;;15.57;60.54;101527.25;5054035;28;20045;-60
2023/05/06 00:58:54;;;;;;;7.45;3.60;;;;;;;15.55;60.35;101534.75;5056825;28;20045;-61
2023/05/06 01:01:24;;;;;;;4.93;3.60;;;;;;;15.54;60.51;101535.00;5054895;28;20316;-60
2023/05/06 01:03:55;;;;;;;9.73;4.28;;;;;;;15.53;60.56;101536.06;5056270;28;20064;-60
2023/05/06 01:06:29;;;;;;;7.03;3.92;;;;;;;15.51;60.37;101530.88;5054517;28;20045;-60
2023/05/06 01:09:04;;;;;;;5.45;3.78;;;;;;;15.49;60.58;101526.75;5058127;28;20049;-60
2023/05/06 01:11:41;;;;;;;6.10;3.75;;;;;;;15.48;60.41;101531.34;5056034;28;20061;-60
2023/05/06 01:14:17;;;;;;;5.65;3.55;;;;;;;15.48;60.42;101533.22;5058361;28;20115;-61
2023/05/06 01:16:47;;;;;;;;;;;;;;;15.46;60.45;101521.81;5060136;28;20140;-59
2023/05/06 01:19:34;;;;;;;4.70;3.83;;;;;;;15.46;60.39;101516.41;5056876;28;19943;-59
2023/05/06 01:22:04;;;;;;;5.35;3.15;;;;;;;15.43;60.38;101527.72;5056788;28;20041;-60
2023/05/06 01:24:38;;;;;;;5.28;3.58;;;;;;;15.41;60.14;101519.81;5053178;28;20522;-60
2023/05/06 01:27:06;;;;;;;5.05;3.38;;;;;;;15.41;60.35;101527.13;5055231;28;20091;-60
2023/05/06 01:29:36;;;;;;;5.57;3.45;;;;;;;15.40;60.20;101522.75;5052255;28;20049;-60
2023/05/06 01:32:20;;;;;;;6.65;3.03;;;;;;;15.40;60.32;101536.31;5048580;28;20139;-60
2023/05/06 01:34:55;;;;;;;4.15;3.35;;;;;;;15.37;60.43;101531.34;5048972;28;20053;-60
2023/05/06 01:37:30;;;;;;;4.82;3.85;;;;;;;15.36;60.24;101535.13;5058254;28;20051;-60
2023/05/06 01:40:00;;;;;;;6.18;3.90;;;;;;;15.35;60.30;101528.88;5049654;28;20060;-60
2023/05/06 01:42:30;;;;;;;4.68;3.20;;;;;;;15.33;60.06;101522.88;5048296;28;20129;-59
2023/05/06 01:45:02;;;;;;;5.40;3.33;;;;;;;15.32;60.30;101528.53;5053529;28;20045;-60
2023/05/06 01:47:30;;;;;;;4.15;3.22;;;;;;;15.31;60.15;101533.13;5052284;28;20053;-60
2023/05/06 01:49:59;;;;;;;8.30;3.15;;;;;;;15.30;60.25;101528.78;5050877;28;20055;-59
2023/05/06 01:52:26;;;;;;;6.03;3.38;;;;;;;15.28;60.22;101536.31;5046937;28;20059;-60
2023/05/06 01:54:54;;;;;;;6.95;3.40;;;;;;;15.27;60.20;101538.19;5056200;28;20502;-59
2023/05/06 01:57:23;;;;;;;5.93;3.72;;;;;;;15.25;60.39;101537.59;5053197;28;20072;-61
2023/05/06 01:59:51;;;;;;;4.57;2.95;;;;;;;15.23;60.22;101537.03;5054067;28;20506;-61
2023/05/06 02:02:19;;;;;;;5.40;3.25;;;;;;;15.23;60.30;101541.63;5057209;28;20048;-61
2023/05/06 02:04:47;;;;;;;5.35;3.88;;;;;;;15.22;60.28;101543.50;5054500;28;20049;-60
2023/05/06 02:07:14;;;;;;;5.10;3.30;;;;;;;15.21;60.35;101538.31;5049041;28;20473;-61
2023/05/06 02:09:42;;;;;;;5.85;3.53;;;;;;;15.20;60.13;101542.91;5054088;28;20482;-61
2023/05/06 02:12:10;;;;;;;5.55;3.40;;;;;;;15.19;60.19;101538.53;5043609;28;20125;-60
2023/05/06 02:14:39;;;;;;;4.18;3.35;;;;;;;15.18;60.23;101536.06;5053883;28;20210;-61
2023/05/06 02:17:07;;;;;;;5.03;3.15;;;;;;;15.17;60.21;101547.97;5054864;28;20057;-61
2023/05/06 02:19:34;;;;;;;5.07;3.28;;;;;;;15.15;60.20;101544.66;5051683;28;20139;-60
2023/05/06 02:22:02;;;;;;;6.47;3.15;;;;;;;15.15;60.08;101550.09;5052206;28;20044;-61
2023/05/06 02:24:30;;;;;;;6.35;3.22;;;;;;;15.14;60.06;101557.38;5051552;28;20115;-60
2023/05/06 02:26:58;;;;;;;7.68;3.20;;;;;;;15.11;60.39;101540.78;5052057;28;20069;-59
2023/05/06 02:29:25;;;;;;;5.32;3.40;;;;;;;15.10;60.06;101550.78;5051332;28;20049;-59
2023/05/06 02:31:54;;;;;;;4.22;2.92;;;;;;;15.11;60.41;101548.91;5051915;28;20793;-60
2023/05/06 02:34:22;;;;;;;4.50;3.20;;;;;;;15.08;60.22;101547.50;5044033;28;20041;-60
2023/05/06 02:36:50;;;;;;;4.78;3.00;;;;;;;15.06;60.39;101544.19;5050468;28;20049;-60
2023/05/06 02:39:18;;;;;;;4.53;3.63;;;;;;;15.06;60.26;101552.31;5054260;28;20124;-59
2023/05/06 02:41:45;;;;;;;6.90;4.07;;;;;;;15.02;60.22;101545.72;5052676;28;20059;-60
2023/05/06 02:44:13;;;;;;;5.40;3.28;;;;;;;15.03;60.09;101552.78;5044095;28;20049;-60
2023/05/06 02:46:42;;;;;;;5.75;3.40;;;;;;;15.03;60.33;101546.53;5052976;28;20052;-60
2023/05/06 02:49:11;;;;;;;4.53;3.20;;;;;;;15.00;60.22;101533.47;5053802;28;20084;-60
2023/05/06 02:51:39;;;;;;;4.40;3.38;;;;;;;15.00;60.30;101541.59;5045405;28;20069;-60
2023/05/06 02:54:07;;;;;;;5.82;2.95;;;;;;;14.98;60.19;101542.66;5050020;28;20135;-59
2023/05/06 02:56:35;;;;;;;5.70;3.17;;;;;;;14.96;60.39;101539.34;5053173;28;20132;-60
2023/05/06 02:59:03;;;;;;;5.40;3.50;;;;;;;14.95;60.30;101543.13;5047197;28;20187;-60
2023/05/06 03:01:31;;;;;;;4.85;3.63;;;;;;;14.93;60.22;101534.41;5055869;28;20536;-59
2023/05/06 03:03:58;;;;;;;4.82;3.13;;;;;;;14.93;60.29;101547.94;5053979;28;20041;-60
2023/05/06 03:06:28;;;;;;;4.95;3.17;;;;;;;14.94;60.10;101546.06;5051091;28;20041;-60
2023/05/06 03:08:55;;;;;;;5.68;2.97;;;;;;;14.92;60.14;101545.47;5054425;28;20132;-59
2023/05/06 03:11:23;;;;;;;3.40;2.65;;;;;;;14.90;60.18;101543.00;5050905;28;20092;-59
2023/05/06 03:13:51;;;;;;;5.55;3.10;;;;;;;14.89;60.32;101532.41;5053766;28;20132;-60
2023/05/06 03:16:19;;;;;;;4.13;2.92;;;;;;;14.87;60.27;101535.34;5057352;28;20076;-59
2023/05/06 03:18:46;;;;;;;5.40;3.50;;;;;;;14.87;60.30;101537.22;5043692;28;20072;-61
2023/05/06 03:21:14;;;;;;;4.30;3.20;;;;;;;14.85;60.23;101533.94;5051728;28;20203;-61
2023/05/06 03:23:43;;;;;;;4.28;2.90;;;;;;;14.83;60.10;101531.47;5050708;28;20045;-61
2023/05/06 03:26:11;;;;;;;6.90;3.05;;;;;;;14.83;60.11;101531.47;5057347;28;20041;-60
2023/05/06 03:28:40;;;;;;;3.85;2.90;;;;;;;14.82;59.98;101532.50;5063209;28;20053;-60
2023/05/06 03:31:08;;;;;;;4.28;3.13;;;;;;;14.74;60.12;101524.75;5055934;28;20051;-60
2023/05/06 03:33:36;;;;;;;4.55;3.28;;;;;;;14.79;60.22;101524.88;5060292;28;20102;-60
2023/05/06 03:36:04;;;;;;;4.90;3.17;;;;;;;14.78;60.10;101525.91;5061546;28;20139;-61
2023/05/06 03:38:32;;;;;;;3.65;2.60;;;;;;;14.78;59.92;101520.50;5061277;28;20083;-61
2023/05/06 03:41:01;;;;;;;7.43;3.20;;;;;;;14.76;59.90;101522.63;5043821;28;20079;-61
2023/05/06 03:43:29;;;;;;;4.88;2.97;;;;;;;14.76;60.23;101525.31;5055316;28;20053;-60
2023/05/06 03:45:57;;;;;;;4.00;2.78;;;;;;;14.75;60.20;101523.69;5054278;28;20042;-61
2023/05/06 03:48:25;;;;;;;4.00;2.72;;;;;;;14.75;60.14;101528.25;5054769;28;20045;-60
2023/05/06 03:50:53;;;;;;;5.95;3.13;;;;;;;14.73;59.80;101525.78;5052038;28;20926;-60
2023/05/06 03:53:21;;;;;;;4.60;2.78;;;;;;;14.72;60.21;101529.56;5054249;28;20284;-61
2023/05/06 03:55:49;;;;;;;6.78;3.10;;;;;;;14.70;60.08;101534.38;5053537;28;20147;-60
2023/05/06 03:58:18;;;;;;;5.60;3.10;;;;;;;14.69;59.96;101538.13;5055931;28;20113;-61
2023/05/06 04:00:46;;;;;;;5.88;2.63;;;;;;;14.67;60.18;101531.31;5052792;28;20105;-61
2023/05/06 04:03:13;;;;;;;3.83;2.75;;;;;;;14.65;60.06;101535.06;5058325;28;20053;-60
2023/05/06 04:05:41;;;;;;;4.65;2.90;;;;;;;14.64;60.28;101535.31;4708417;28;10000139;-60
2023/05/06 04:08:09;;;;;;;3.22;2.70;;;;;;;14.63;60.03;101542.59;5055207;28;20063;-60
2023/05/06 04:10:39;;;;;;;4.13;2.92;;;;;;;14.61;60.07;101530.34;5047339;28;20131;-60
2023/05/06 04:13:07;;;;;;;5.95;3.15;;;;;;;14.61;59.98;101536.59;5049071;28;20053;-60
2023/05/06 04:15:37;;;;;;;4.38;2.80;;;;;;;14.58;60.27;101542.47;5042822;28;20052;-60
2023/05/06 04:18:06;;;;;;;4.75;3.08;;;;;;;14.48;60.01;101520.56;5045880;28;20136;-60
2023/05/06 04:20:34;;;;;;;5.22;3.00;;;;;;;14.57;60.13;101537.28;5053285;28;20040;-60
2023/05/06 04:23:02;;;;;;;5.05;3.13;;;;;;;14.56;60.18;101543.75;5047338;28;20075;-60
2023/05/06 04:25:30;;;;;;;6.05;2.90;;;;;;;14.54;59.74;101541.28;5053310;28;20080;-59
2023/05/06 04:27:57;;;;;;;5.95;2.78;;;;;;;14.53;59.95;101546.91;5054618;28;20047;-59
2023/05/06 04:30:26;;;;;;;4.65;2.67;;;;;;;14.51;59.92;101546.31;5044715;28;20053;-59
2023/05/06 04:32:55;;;;;;;4.25;2.90;;;;;;;14.49;60.31;101541.16;5049922;28;20048;-60
2023/05/06 04:35:22;;;;;;;4.60;2.67;;;;;;;14.49;60.22;101546.56;5050472;28;20053;-59
2023/05/06 04:37:50;;;;;;;3.97;2.47;;;;;;;14.48;60.02;101549.50;5053327;28;20136;-60
2023/05/06 04:40:18;;;;;;;4.38;2.85;;;;;;;14.46;60.22;101549.72;5042290;28;20060;-59
2023/05/06 04:42:46;;;;;;;3.00;2.30;;;;;;;14.45;60.09;101550.78;5055231;28;20045;-59
2023/05/06 04:45:14;;;;;;;3.72;2.80;;;;;;;14.44;60.17;101546.41;5059905;28;20136;-60
2023/05/06 04:47:42;;;;;;;4.13;2.53;;;;;;;14.43;60.11;101550.19;5050754;28;20494;-60
2023/05/06 04:50:12;;;;;;;4.05;2.92;;;;;;;14.43;60.02;101554.75;5055097;28;20080;-59
2023/05/06 04:52:40;;;;;;;6.93;2.95;;;;;;;14.42;60.06;101548.53;5058438;28;20088;-59
2023/05/06 04:55:09;;;;;;;5.07;2.50;;;;;;;14.42;59.71;101556.66;5050172;28;20045;-60
2023/05/06 04:57:38;;;;;;;5.20;3.10;;;;;;;14.44;59.84;101569.94;5056859;28;20135;-60
2023/05/06 05:00:08;;;;;;;6.32;3.05;;;;;;;14.40;59.54;101561.44;5055999;28;20132;-60
2023/05/06 05:02:37;;;;;;;3.72;2.53;;;;;;;14.42;59.65;101572.03;5048862;28;20121;-60
2023/05/06 05:05:05;;;;;;;3.08;2.53;;;;;;;14.41;59.77;101575.78;5049267;28;20059;-60
2023/05/06 05:07:35;;;;;;;3.90;2.80;;;;;;;14.41;60.01;101573.91;5055794;28;20068;-60
2023/05/06 05:10:03;;;;;;;4.00;2.17;;;;;;;14.42;59.97;101577.47;5054723;28;20048;-60
2023/05/06 05:12:31;;;;;;;5.50;2.45;;;;;;;14.41;59.93;101583.88;5052812;28;20041;-60
2023/05/06 05:14:59;;;;;;;2.72;2.20;;;;;;;14.41;59.68;101583.88;5053879;28;20044;-60
2023/05/06 05:17:26;;;;;;;4.65;2.20;;;;;;;14.41;59.55;101586.59;5045746;28;20049;-60
2023/05/06 05:19:54;;;;;;;3.05;1.98;;;;;;;14.40;59.68;101577.66;5052280;28;20075;-60
2023/05/06 05:22:22;;;;;;;3.30;2.38;;;;;;;14.40;59.85;101587.66;5053825;28;20160;-60
2023/05/06 05:24:51;;;;;;;3.15;1.98;;;;;;;14.40;59.89;101584.94;5049432;28;20429;-61
2023/05/06 05:27:19;;;;;;;3.38;2.45;;;;;;;14.39;59.94;101586.81;5047726;28;20057;-60
2023/05/06 05:29:47;;;;;;;5.25;2.45;;;;;;;14.39;60.13;101586.81;5054911;28;20140;-60
2023/05/06 05:32:15;;;;;;;5.40;2.50;;;;;;;14.40;59.72;101590.34;5052538;28;20116;-59
2023/05/06 05:34:42;;;;;;;3.53;2.60;;;;;;;14.40;59.80;101590.34;5053407;28;20083;-62
2023/05/06 05:37:10;;;;;;;4.68;2.88;;;;;;;14.41;59.87;101602.81;5064288;28;20132;-63
2023/05/06 05:39:38;;;;;;;3.33;2.10;;;;;;;14.41;60.08;101600.13;5055481;28;20075;-63
2023/05/06 05:42:07;;;;;;;3.90;2.05;;;;;;;14.40;60.05;101599.28;5041866;28;20083;-66
2023/05/06 05:44:35;;;;;;;3.15;2.20;;;;;;;14.39;60.00;101599.50;5059198;28;20461;-64
2023/05/06 05:47:02;;;;;;;4.75;2.40;;;;;;;14.40;60.17;101603.88;5041705;28;20044;-60
2023/05/06 05:49:30;;;;;;;3.83;2.00;;;;;;;14.40;60.13;101601.16;5058118;28;20040;-62
2023/05/06 05:51:58;;;;;;;4.22;2.33;;;;;;;14.40;59.95;101606.56;5051462;28;20053;-62
2023/05/06 05:54:26;;;;;;;4.20;2.17;;;;;;;14.39;59.99;101602.22;5045349;28;20068;-61
2023/05/06 05:56:53;;;;;;;2.97;1.88;;;;;;;14.38;59.80;101595.16;5054610;28;20048;-63
2023/05/06 05:59:22;;;;;;;3.53;2.35;;;;;;;14.37;60.00;101596.22;5050465;28;20084;-61
2023/05/06 06:01:50;;;;;;;2.92;1.90;;;;;;;14.37;60.39;101604.31;5049961;28;20088;-62
2023/05/06 06:04:18;;;;;;;4.80;2.35;;;;;;;14.37;60.04;101601.63;5054409;28;20060;-60
2023/05/06 06:06:46;;;;;;;4.72;2.05;;;;;;;14.37;60.14;101596.22;5056857;28;20057;-61
2023/05/06 06:09:15;;;;;;;3.60;2.30;;;;;;;14.36;60.23;101597.28;5057972;28;20124;-62
2023/05/06 06:11:43;;;;;;;5.53;2.72;;;;;;;14.35;60.54;101604.56;5050110;28;20057;-59
2023/05/06 06:14:11;;;;;;;5.10;2.53;;;;;;;14.36;60.27;101597.28;5062026;28;20057;-57
2023/05/06 06:16:40;;;;;;;4.60;2.70;;;;;;;14.37;60.56;101607.03;5049656;28;20083;-60
2023/05/06 06:19:08;;;;;;;4.00;2.38;;;;;;;14.37;60.42;101596.22;5057304;28;20075;-59
2023/05/06 06:21:35;;;;;;;4.57;2.83;;;;;;;14.38;60.50;101590.56;5051144;28;20525;-59
2023/05/06 06:24:04;;;;;;;7.15;3.75;;;;;;;14.38;60.89;101601.41;5052728;28;20140;-60
2023/05/06 06:26:32;;;;;;;8.32;4.38;;;;;;;14.40;60.78;101595.75;5055004;28;20068;-62
2023/05/06 06:28:59;;;;;;;11.68;5.15;;;;;;;14.41;60.42;101609.06;5048737;28;20082;-59
2023/05/06 06:31:28;;;;;;;10.32;5.55;;;;;;;14.43;61.12;101603.44;5051049;28;20048;-59
2023/05/06 06:33:57;;;;;;;8.57;4.40;;;;;;;14.45;61.27;101610.28;5051773;28;20472;-58
2023/05/06 06:36:25;;;;;;;9.95;5.00;;;;;;;14.47;60.99;101594.66;5053714;28;20049;-58
2023/05/06 06:38:52;;;;;;;8.43;5.22;;;;;;;14.49;60.85;101606.06;5037943;28;20042;-58
2023/05/06 06:41:20;;;;;;;10.35;4.90;;;;;;;14.55;61.15;101605.16;5055133;28;20064;-59
2023/05/06 06:43:48;;;;;;;9.88;4.90;;;;;;;14.58;61.25;101607.38;5059670;28;20049;-59
2023/05/06 06:46:15;;;;;;;8.45;4.18;;;;;;;14.62;61.06;101605.88;5052992;28;20057;-59
2023/05/06 06:48:43;;;;;;;13.60;4.95;;;;;;;14.64;61.05;101598.34;5051391;28;20075;-59
2023/05/06 06:51:12;;;;;;;8.80;5.43;;;;;;;14.68;61.00;101600.59;5054775;28;20122;-60
2023/05/06 06:53:40;;;;;;;10.88;4.40;;;;;;;14.71;61.23;101609.09;5054514;28;20040;-60
2023/05/06 06:56:10;;;;;;;7.38;4.38;;;;;;;14.72;61.54;101608.03;5056861;28;20042;-59
2023/05/06 06:58:38;;;;;;;8.10;3.80;;;;;;;14.75;61.15;101602.16;5052532;28;20063;-59
2023/05/06 07:01:06;;;;;;;8.45;3.53;;;;;;;14.78;61.18;101600.88;5060630;28;20068;-62
2023/05/06 07:03:34;;;;;;;7.28;3.42;;;;;;;14.80;61.35;101605.00;5062747;28;20116;-66
2023/05/06 07:06:01;;;;;;;7.32;3.65;;;;;;;14.83;61.47;101607.22;5063614;28;20048;-63
2023/05/06 07:08:30;;;;;;;7.10;3.63;;;;;;;14.86;61.84;101606.78;5062673;28;20045;-58
2023/05/06 07:10:58;;;;;;;8.20;4.03;;;;;;;14.87;63.11;101607.59;5060807;28;20125;-59
2023/05/06 07:13:26;;;;;;;10.45;3.58;;;;;;;14.88;62.73;101620.06;5055054;28;20056;-59
2023/05/06 07:15:53;;;;;;;6.20;3.30;;;;;;;14.88;62.66;101607.38;5059629;28;20049;-59
2023/05/06 07:18:21;;;;;;;6.93;3.05;;;;;;;14.89;62.48;101609.00;5060861;28;20060;-60
2023/05/06 07:20:49;;;;;;;7.32;4.25;;;;;;;14.91;62.47;101614.19;5046495;28;20091;-60
2023/05/06 07:23:17;;;;;;;7.28;3.20;;;;;;;14.92;62.19;101618.56;5059074;28;20048;-65
2023/05/06 07:25:46;;;;;;;7.53;3.60;;;;;;;14.94;62.60;101622.69;5058744;28;20052;-60
2023/05/06 07:28:14;;;;;;;6.07;3.28;;;;;;;14.94;62.47;101627.25;5054155;28;20568;-61
2023/05/06 07:30:42;;;;;;;6.30;2.80;;;;;;;14.94;62.37;101619.97;5062815;28;20064;-61
2023/05/06 07:33:10;;;;;;;5.80;2.85;;;;;;;14.96;62.28;101623.28;5061471;28;20584;-60
2023/05/06 07:35:38;;;;;;;5.65;3.10;;;;;;;14.96;62.19;101620.56;5064229;28;20036;-61
2023/05/06 07:38:05;;;;;;;8.15;2.65;;;;;;;14.99;62.34;101624.69;5064008;28;20049;-59
2023/05/06 07:40:33;;;;;;;4.93;2.50;;;;;;;15.01;62.24;101624.47;5063598;28;20063;-60
2023/05/06 07:43:03;;;;;;;8.63;3.20;;;;;;;15.02;62.15;101632.34;5056950;28;20045;-60
2023/05/06 07:45:31;;;;;;;6.30;3.15;;;;;;;15.04;62.15;101629.41;5061934;28;21162;-60
2023/05/06 07:47:58;;;;;;;8.27;3.08;;;;;;;15.04;62.07;101624.00;5058390;28;20044;-60
2023/05/06 07:50:26;;;;;;;4.63;2.60;;;;;;;15.06;62.26;101627.28;5061853;28;20088;-60
2023/05/06 07:52:54;;;;;;;5.63;2.72;;;;;;;15.08;62.61;101628.72;5063413;28;20059;-60
2023/05/06 07:55:22;;;;;;;6.88;3.25;;;;;;;15.10;63.16;101620.34;5060677;28;20520;-60
2023/05/06 07:57:50;;;;;;;10.10;3.53;;;;;;;15.13;63.20;101628.00;5056824;28;20087;-60
2023/05/06 08:00:19;;;;;;;10.80;3.35;;;;;;;15.15;63.05;101620.47;5062515;28;20053;-60
2023/05/06 08:02:47;;;;;;;6.30;2.97;;;;;;;15.17;62.71;101626.50;5050782;28;20067;-60
2023/05/06 08:05:16;;;;;;;6.00;2.80;;;;;;;15.18;63.01;101622.72;5052218;28;20063;-61
2023/05/06 08:07:43;;;;;;;15.02;5.82;;;;;;;15.26;64.15;101619.66;5058799;28;20104;-60
2023/05/06 08:10:11;;;;;;;8.15;3.50;;;;;;;15.29;63.94;101624.63;5052542;28;20104;-60
2023/05/06 08:12:39;;;;;;;8.07;4.05;;;;;;;15.28;63.39;101629.22;5053352;28;20072;-60
2023/05/06 08:15:08;;;;;;;8.85;3.05;;;;;;;15.30;63.56;101628.97;5058528;28;20049;-60
2023/05/06 08:17:38;;;;;;;8.82;3.05;;;;;;;15.32;63.56;101629.56;5059132;28;20052;-60
2023/05/06 08:20:06;;;;;;;6.72;4.00;;;;;;;15.32;63.82;101621.44;5057867;28;20053;-60
2023/05/06 08:22:34;;;;;;;6.13;3.03;;;;;;;15.35;63.61;101631.81;5051533;28;20069;-59
2023/05/06 08:25:02;;;;;;;5.57;3.08;;;;;;;15.37;63.49;101627.00;5060587;28;20104;-60
2023/05/06 08:27:30;;;;;;;6.65;2.80;;;;;;;15.42;64.55;101626.28;5063289;28;20048;-59
2023/05/06 08:29:58;;;;;;;4.82;2.30;;;;;;;15.37;64.07;101609.91;5062063;28;20056;-64
2023/05/06 08:32:25;;;;;;;6.32;2.92;;;;;;;15.45;63.52;101621.22;5061986;28;20136;-58
2023/05/06 08:34:55;;;;;;;5.40;3.00;;;;;;;15.48;64.18;101617.22;5060912;28;20463;-59
2023/05/06 08:37:22;;;;;;;6.63;3.03;;;;;;;15.54;65.28;101614.38;5048855;28;20048;-60
2023/05/06 08:39:50;;;;;;;9.52;3.75;;;;;;;15.59;66.05;101619.13;5052748;28;20120;-60
2023/05/06 08:42:18;;;;;;;5.65;2.90;;;;;;;15.65;65.81;101614.63;5057524;28;20056;-61
2023/05/06 08:44:46;;;;;;;8.45;3.00;;;;;;;15.72;66.57;101621.56;5055254;28;20078;-61
2023/05/06 08:47:13;;;;;;;6.18;2.60;;;;;;;15.77;66.19;101613.56;5047528;28;20073;-62
2023/05/06 08:49:41;;;;;;;7.93;3.50;;;;;;;15.85;66.40;101609.66;5060833;28;20049;-60
2023/05/06 08:52:11;;;;;;;4.65;2.60;;;;;;;15.93;66.04;101606.56;5052898;28;20081;-60
2023/05/06 08:54:40;;;;;;;6.38;2.25;;;;;;;16.00;66.41;101601.84;5049503;28;20083;-60
2023/05/06 08:57:11;;;;;;;5.63;2.83;;;;;;;16.05;66.25;101604.66;5058291;28;20049;-60
2023/05/06 08:59:41;;;;;;;9.35;2.40;;;;;;;16.07;65.84;101605.25;5059938;28;20110;-63
2023/05/06 09:02:10;;;;;;;4.72;2.15;;;;;;;16.09;65.77;101596.88;5047000;28;20363;-63
2023/05/06 09:04:38;;;;;;;6.70;2.38;;;;;;;16.09;65.58;101597.69;5056135;28;20052;-61
2023/05/06 09:07:06;;;;;;;3.40;1.98;;;;;;;16.12;65.39;101599.94;5049658;28;20104;-62
2023/05/06 09:09:35;;;;;;;5.32;2.22;;;;;;;16.12;65.02;101591.78;4703012;28;10000627;-61
2023/05/06 09:12:04;;;;;;;4.13;1.98;;;;;;;16.13;64.90;101601.56;5045393;28;20062;-61
2023/05/06 09:14:32;;;;;;;5.15;2.70;;;;;;;16.14;64.88;101596.97;5052057;28;20057;-61
2023/05/06 09:17:00;;;;;;;5.88;2.45;;;;;;;16.15;64.83;101596.72;5051919;28;20041;-62
2023/05/06 09:19:28;;;;;;;3.38;1.70;;;;;;;16.18;63.98;101598.97;5055202;28;20109;-61
2023/05/06 09:21:56;;;;;;;5.13;2.30;;;;;;;16.24;63.98;101595.28;5043667;28;20116;-63
2023/05/06 09:24:24;;;;;;;5.57;1.83;;;;;;;16.28;63.63;101591.03;5046142;28;20049;-60
2023/05/06 09:26:54;;;;;;;4.07;1.85;;;;;;;16.36;63.65;101599.84;5040193;28;20042;-61
2023/05/06 09:29:22;;;;;;;6.90;1.98;;;;;;;16.37;63.44;101604.22;5057108;28;20116;-62
2023/05/06 09:31:51;;;;;;;4.10;1.67;;;;;;;16.38;63.53;101595.81;5050689;28;20458;-61
2023/05/06 09:34:20;;;;;;;4.35;2.22;;;;;;;16.42;63.65;101594.28;5054590;28;20061;-61
2023/05/06 09:36:47;;;;;;;6.38;1.75;;;;;;;16.46;64.05;101595.44;5056345;28;20045;-61
2023/05/06 09:39:15;;;;;;;3.50;1.63;;;;;;;16.48;63.93;101590.59;5049048;28;20148;-61
2023/05/06 09:41:43;;;;;;;6.20;2.35;;;;;;;16.50;63.78;101591.19;5046857;28;20406;-61
2023/05/06 09:44:12;;;;;;;3.92;1.70;;;;;;;16.54;63.74;101594.22;5052425;28;20049;-59
2023/05/06 09:46:40;;;;;;;3.72;1.55;;;;;;;16.54;63.82;101589.63;5056963;28;20045;-60
2023/05/06 09:49:09;;;;;;;4.53;1.80;;;;;;;16.60;63.59;101585.13;5052872;28;20069;-60
2023/05/06 09:51:37;;;;;;;6.53;1.67;;;;;;;16.61;63.76;101586.75;5056526;28;20530;-60
2023/05/06 09:54:05;;;;;;;2.92;1.45;;;;;;;16.64;63.97;101578.13;5052923;28;20108;-62
2023/05/06 09:56:34;;;;;;;1.92;1.40;;;;;;;16.66;63.80;101577.91;5055386;28;20068;-58
2023/05/06 09:59:03;;;;;;;2.88;1.50;;;;;;;16.67;63.73;101583.09;5042572;28;20053;-61
2023/05/06 10:01:34;;;;;;;2.58;1.58;;;;;;;16.69;63.72;101585.56;5058100;28;20044;-61
2023/05/06 10:04:08;;;;;;;3.83;1.30;;;;;;;16.84;62.98;101580.41;5051818;28;20046;-60
2023/05/06 10:06:39;;;;;;;4.15;1.70;;;;;;;16.81;63.46;101578.19;5051942;28;20056;-61
2023/05/06 10:09:08;;;;;;;3.17;1.15;;;;;;;16.82;63.61;101577.13;5052693;28;20049;-60
2023/05/06 10:11:37;;;;;;;4.75;1.58;;;;;;;16.82;63.66;101577.94;5049722;28;20080;-61
2023/05/06 10:14:06;;;;;;;3.38;1.75;;;;;;;16.85;63.61;101573.91;5047020;28;20482;-61
2023/05/06 10:16:38;;;;;;;3.60;1.20;;;;;;;16.87;63.70;101578.03;5050455;28;20049;-61
2023/05/06 10:19:08;;;;;;;4.57;1.58;;;;;;;16.91;63.30;101575.66;5050634;28;20379;-60
2023/05/06 10:21:39;;;;;;;3.38;1.27;;;;;;;16.96;63.26;101572.19;5043224;28;20116;-60
2023/05/06 10:24:11;;;;;;;2.65;1.50;;;;;;;17.05;62.80;101570.72;5049327;28;20710;-61
2023/05/06 10:26:40;;;;;;;2.83;1.17;;;;;;;17.26;61.58;101563.69;5045470;28;20077;-60
2023/05/06 10:29:10;;;;;;;1.70;1.20;;;;;;;17.24;61.95;101566.66;5050060;28;20045;-61
2023/05/06 10:31:46;;;;;;;3.33;1.63;;;;;;;17.25;62.00;101560.16;5054497;28;20085;-60
2023/05/06 10:34:17;;;;;;;3.08;1.70;;;;;;;17.24;62.84;101559.34;5041406;28;20049;-60
2023/05/06 10:36:46;;;;;;;2.03;0.93;;;;;;;17.26;63.01;101556.38;5050608;28;20071;-61
2023/05/06 10:39:14;;;;;;;2.95;1.17;;;;;;;17.25;63.32;101552.00;5057089;28;20048;-60
2023/05/06 10:41:42;;;;;;;2.28;1.23;;;;;;;17.27;63.03;101558.03;5049803;28;20041;-60
2023/05/06 10:44:10;;;;;;;3.58;1.38;;;;;;;17.33;62.32;101554.31;5054790;28;20044;-59
2023/05/06 10:46:58;;;;;;;3.00;1.08;;;;;;;17.37;62.39;101546.44;5056542;28;20069;-61
2023/05/06 10:49:26;;;;;;;1.70;0.93;;;;;;;17.60;60.84;101548.94;5058368;28;20075;-60
2023/05/06 10:52:16;;;;;;;2.97;1.05;;;;;;;17.73;60.23;101539.63;5057743;28;20045;-61
2023/05/06 10:54:51;;;;;;;1.90;1.25;;;;;;;17.64;61.17;101536.50;5049051;28;20457;-61
2023/05/06 10:57:21;;;;;;;2.72;1.10;;;;;;;17.61;61.78;101541.63;5053404;28;20065;-60
2023/05/06 10:59:58;;;;;;;3.80;1.23;;;;;;;17.61;62.06;101537.00;5047182;28;10000919;-60
2023/05/06 11:02:30;;;;;;;1.67;0.80;;;;;;;17.61;62.27;101528.84;5052730;28;20066;-60
2023/05/06 11:05:00;;;;;;;3.22;1.38;;;;;;;17.82;60.43;101543.56;5050815;28;20049;-61
2023/05/06 11:07:28;;;;;;;3.15;1.15;;;;;;;17.78;60.45;101532.38;5052340;28;20103;-61
2023/05/06 11:09:58;;;;;;;3.33;1.25;;;;;;;17.80;61.39;101537.53;5052444;28;20063;-61
2023/05/06 11:12:46;;;;;;;4.85;0.80;;;;;;;17.78;61.56;101535.09;5045784;28;20376;-60
2023/05/06 11:15:38;;;;;;;2.10;1.05;;;;;;;17.79;61.62;101534.00;5057342;28;20148;-60
2023/05/06 11:18:47;;;;;;;5.68;1.42;;;;;;;17.88;60.05;101540.66;5041388;28;20049;-60
2023/05/06 11:21:38;;;;;;;4.75;1.60;;;;;;;17.83;61.52;101524.28;5053539;28;20575;-60
2023/05/06 11:24:10;;;;;;;3.03;1.08;;;;;;;17.85;60.78;101524.84;5047464;28;20106;-61
2023/05/06 11:26:42;;;;;;;2.30;1.60;;;;;;;17.81;61.50;101514.72;5054501;28;20127;-60
2023/05/06 11:29:10;;;;;;;1.75;0.93;;;;;;;17.85;61.64;101519.41;5049917;28;20184;-60
2023/05/06 11:31:40;;;;;;;2.70;1.25;;;;;;;17.85;61.68;101522.13;5043224;28;20498;-60
2023/05/06 11:34:12;;;;;;;3.10;1.50;;;;;;;17.84;61.82;101523.19;5052339;28;20133;-60